createdAt,value
2019-05-14T00:00:42.276Z,9.70
2019-05-14T00:03:13.608Z,8.10
2019-05-14T00:05:43.324Z,8.73
2019-05-14T00:08:13.063Z,8.53
2019-05-14T00:10:42.784Z,8.27
2019-05-14T00:13:12.530Z,8.87
2019-05-14T00:15:42.315Z,9.93
2019-05-14T00:18:24.493Z,7.80
2019-05-14T00:20:54.256Z,8.43
2019-05-14T00:23:23.970Z,8.00
2019-05-14T00:25:53.726Z,7.37
2019-05-14T00:28:23.470Z,7.67
2019-05-14T00:30:53.200Z,12.37
2019-05-14T00:33:22.943Z,10.57
2019-05-14T00:35:53.676Z,9.00
2019-05-14T00:38:23.488Z,8.77
2019-05-14T00:40:53.234Z,10.80
2019-05-14T00:43:23.014Z,10.97
2019-05-14T00:45:52.739Z,10.53
2019-05-14T00:48:22.506Z,10.07
2019-05-14T00:50:52.270Z,11.27
2019-05-14T00:53:22.007Z,10.87
2019-05-14T00:55:51.835Z,11.33
2019-05-14T00:58:21.904Z,11.23
2019-05-14T01:00:52.490Z,10.10
2019-05-14T01:03:22.504Z,9.10
2019-05-14T01:05:52.501Z,10.77
2019-05-14T01:08:22.318Z,12.77
2019-05-14T01:10:53.153Z,11.27
2019-05-14T01:13:22.927Z,9.70
2019-05-14T01:15:52.657Z,10.20
2019-05-14T01:18:22.485Z,10.17
2019-05-14T01:20:52.234Z,10.87
2019-05-14T01:23:21.959Z,12.40
2019-05-14T01:25:51.880Z,11.20
2019-05-14T01:28:21.800Z,11.43
2019-05-14T01:30:51.937Z,11.17
2019-05-14T01:33:21.910Z,11.40
2019-05-14T01:35:51.696Z,12.27
2019-05-14T01:38:22.122Z,11.37
2019-05-14T01:40:52.555Z,11.43
2019-05-14T01:43:22.955Z,11.57
2019-05-14T01:45:52.712Z,11.03
2019-05-14T01:48:22.449Z,10.93
2019-05-14T01:50:52.272Z,10.33
2019-05-14T01:53:22.184Z,11.50
2019-05-14T01:55:52.193Z,11.23
2019-05-14T01:58:23.055Z,11.20
2019-05-14T02:00:52.893Z,11.73
2019-05-14T02:03:22.798Z,12.67
2019-05-14T02:05:53.570Z,9.03
2019-05-14T02:08:23.297Z,7.37
2019-05-14T02:10:53.036Z,7.40
2019-05-14T02:13:22.763Z,6.70
2019-05-14T02:15:52.548Z,7.23
2019-05-14T02:18:22.364Z,8.43
2019-05-14T02:20:52.328Z,8.57
2019-05-14T02:23:22.649Z,9.00
2019-05-14T02:25:52.592Z,9.53
2019-05-14T02:28:22.333Z,9.47
2019-05-14T02:30:57.945Z,9.50
2019-05-14T02:33:23.445Z,9.63
2019-05-14T02:35:53.172Z,9.63
2019-05-14T02:38:22.920Z,11.17
2019-05-14T02:40:52.684Z,13.87
2019-05-14T02:43:22.412Z,14.63
2019-05-14T02:46:09.574Z,12.93
2019-05-14T02:48:24.015Z,12.23
2019-05-14T02:50:53.747Z,13.33
2019-05-14T02:53:23.562Z,11.30
2019-05-14T02:55:54.332Z,11.23
2019-05-14T02:58:24.067Z,10.97
2019-05-14T03:00:53.798Z,9.80
2019-05-14T03:03:23.534Z,10.80
2019-05-14T03:05:53.285Z,9.93
2019-05-14T03:08:23.500Z,10.30
2019-05-14T03:10:53.393Z,9.33
2019-05-14T03:13:23.211Z,10.47
2019-05-14T03:15:53.576Z,10.70
2019-05-14T03:18:23.338Z,10.33
2019-05-14T03:20:53.065Z,11.13
2019-05-14T03:23:23.445Z,11.03
2019-05-14T03:25:53.382Z,12.40
2019-05-14T03:28:23.158Z,11.60
2019-05-14T03:30:53.513Z,11.27
2019-05-14T03:33:23.340Z,9.97
2019-05-14T03:36:01.256Z,11.10
2019-05-14T03:38:24.423Z,11.73
2019-05-14T03:40:54.171Z,11.53
2019-05-14T03:43:23.918Z,12.93
2019-05-14T03:45:59.007Z,11.60
2019-05-14T03:48:29.739Z,11.77
2019-05-14T03:51:00.500Z,14.27
2019-05-14T03:53:30.439Z,15.83
2019-05-14T03:56:00.885Z,15.40
2019-05-14T03:58:30.774Z,16.67
2019-05-14T04:01:02.274Z,14.90
2019-05-14T04:03:32.498Z,14.50
2019-05-14T04:06:04.059Z,15.83
2019-05-14T04:08:35.210Z,16.50
2019-05-14T04:11:04.952Z,16.73
2019-05-14T04:13:40.564Z,16.40
2019-05-14T04:16:13.084Z,15.20
2019-05-14T04:18:50.035Z,13.73
2019-05-14T04:21:20.619Z,15.63
2019-05-14T04:23:51.284Z,14.47
2019-05-14T04:26:21.821Z,15.33
2019-05-14T04:28:51.923Z,15.27
2019-05-14T04:31:21.781Z,15.20
2019-05-14T04:33:52.028Z,16.57
2019-05-14T04:36:21.748Z,16.67
2019-05-14T04:38:55.310Z,16.27
2019-05-14T04:41:22.969Z,15.17
2019-05-14T04:43:52.741Z,13.97
2019-05-14T04:46:22.484Z,14.33
2019-05-14T04:48:52.334Z,14.40
2019-05-14T04:51:22.085Z,14.53
2019-05-14T04:53:51.823Z,13.50
2019-05-14T04:56:21.569Z,12.83
2019-05-14T04:58:51.291Z,12.70
2019-05-14T05:01:21.907Z,12.53
2019-05-14T05:03:51.656Z,12.93
2019-05-14T05:06:21.429Z,13.07
2019-05-14T05:08:51.158Z,13.40
2019-05-14T05:11:21.670Z,13.23
2019-05-14T05:13:52.524Z,11.87
2019-05-14T05:16:22.264Z,12.60
2019-05-14T05:18:52.027Z,11.77
2019-05-14T05:21:21.764Z,13.37
2019-05-14T05:23:51.510Z,12.50
2019-05-14T05:26:21.527Z,14.40
2019-05-14T05:29:02.980Z,12.63
2019-05-14T05:31:22.666Z,13.37
2019-05-14T05:33:52.383Z,11.73
2019-05-14T05:36:22.122Z,14.57
2019-05-14T05:38:51.868Z,12.60
2019-05-14T05:41:21.623Z,13.47
2019-05-14T05:43:52.236Z,12.50
2019-05-14T05:46:21.970Z,13.17
2019-05-14T05:48:51.730Z,13.83
2019-05-14T05:51:21.486Z,13.33
2019-05-14T05:53:51.212Z,15.10
2019-05-14T05:56:20.957Z,22.03
2019-05-14T05:58:50.684Z,19.83
2019-05-14T06:01:20.479Z,16.80
2019-05-14T06:03:50.198Z,16.53
2019-05-14T06:06:19.956Z,14.27
2019-05-14T06:08:49.688Z,13.90
2019-05-14T06:11:19.724Z,15.00
2019-05-14T06:13:49.590Z,14.83
2019-05-14T06:16:19.342Z,15.63
2019-05-14T06:18:49.095Z,15.43
2019-05-14T06:21:19.426Z,16.20
2019-05-14T06:23:49.703Z,15.70
2019-05-14T06:26:19.697Z,14.97
2019-05-14T06:28:49.933Z,14.10
2019-05-14T06:31:19.824Z,13.93
2019-05-14T06:33:49.569Z,12.63
2019-05-14T06:36:19.789Z,13.83
2019-05-14T06:38:49.954Z,13.73
2019-05-14T06:41:19.734Z,15.23
2019-05-14T06:43:49.491Z,9.27
2019-05-14T06:46:19.606Z,11.63
2019-05-14T06:48:49.479Z,11.83
2019-05-14T06:51:20.206Z,11.80
2019-05-14T06:53:50.280Z,11.17
2019-05-14T06:56:21.770Z,11.10
2019-05-14T06:58:52.571Z,11.30
2019-05-14T07:01:22.327Z,9.87
2019-05-14T07:03:52.062Z,9.27
2019-05-14T07:06:22.178Z,7.13
2019-05-14T07:08:52.786Z,5.20
2019-05-14T07:11:22.675Z,5.90
2019-05-14T07:13:52.462Z,4.70
2019-05-14T07:16:22.194Z,4.37
2019-05-14T07:18:54.190Z,3.90
2019-05-14T07:21:23.260Z,3.70
2019-05-14T07:23:53.284Z,3.07
2019-05-14T07:26:23.041Z,3.13
2019-05-14T07:28:52.774Z,3.23
2019-05-14T07:31:22.521Z,3.80
2019-05-14T07:33:52.263Z,2.90
2019-05-14T07:36:21.994Z,2.50
2019-05-14T07:38:51.762Z,3.40
2019-05-14T07:41:21.490Z,2.60
2019-05-14T07:43:51.235Z,2.47
2019-05-14T07:46:20.969Z,3.00
2019-05-14T07:49:04.256Z,3.33
2019-05-14T07:51:22.095Z,3.77
2019-05-14T07:53:51.805Z,3.10
2019-05-14T07:56:21.551Z,3.03
2019-05-14T07:58:51.271Z,3.07
2019-05-14T08:01:21.005Z,3.90
2019-05-14T08:03:50.778Z,3.53
2019-05-14T08:06:20.822Z,3.50
2019-05-14T08:08:50.549Z,3.20
2019-05-14T08:11:20.271Z,3.10
2019-05-14T08:13:50.010Z,3.10
2019-05-14T08:16:19.740Z,3.67
2019-05-14T08:18:49.469Z,3.30
2019-05-14T08:21:19.696Z,3.30
2019-05-14T08:23:49.615Z,3.30
2019-05-14T08:26:19.519Z,3.30
2019-05-14T08:28:49.395Z,2.70
2019-05-14T08:31:19.130Z,2.13
2019-05-14T08:33:49.290Z,2.33
2019-05-14T08:36:19.225Z,2.70
2019-05-14T08:38:50.158Z,2.77
2019-05-14T08:41:20.174Z,3.03
2019-05-14T08:43:50.027Z,3.00
2019-05-14T08:46:19.761Z,2.80
2019-05-14T08:48:49.905Z,2.80
2019-05-14T08:51:19.767Z,3.20
2019-05-14T08:53:50.534Z,3.30
2019-05-14T08:56:20.575Z,3.30
2019-05-14T08:58:50.295Z,3.80
2019-05-14T09:01:20.052Z,2.83
2019-05-14T09:03:49.961Z,3.10
2019-05-14T09:06:19.810Z,3.00
2019-05-14T09:08:50.147Z,3.20
2019-05-14T09:11:24.178Z,2.80
2019-05-14T09:13:51.354Z,3.40
2019-05-14T09:16:38.069Z,2.73
2019-05-14T09:19:11.771Z,3.17
2019-05-14T09:21:41.503Z,3.13
2019-05-14T09:24:12.088Z,2.60
2019-05-14T09:26:41.803Z,2.50
2019-05-14T09:29:22.094Z,2.50
2019-05-14T09:31:43.059Z,2.57
2019-05-14T09:34:12.766Z,2.80
2019-05-14T09:36:43.649Z,2.60
2019-05-14T09:39:13.375Z,3.07
2019-05-14T09:41:43.115Z,2.00
2019-05-14T09:44:12.839Z,1.80
2019-05-14T09:46:42.572Z,1.83
2019-05-14T09:49:12.311Z,1.90
2019-05-14T09:51:42.023Z,1.90
2019-05-14T09:54:11.742Z,2.00
2019-05-14T09:56:41.616Z,1.90
2019-05-14T09:59:11.338Z,1.80
2019-05-14T10:01:41.939Z,1.80
2019-05-14T10:04:11.666Z,2.10
2019-05-14T10:06:41.389Z,2.17
2019-05-14T10:09:11.155Z,2.30
2019-05-14T10:11:40.876Z,2.43
2019-05-14T10:14:10.662Z,2.13
2019-05-14T10:16:40.400Z,2.17
2019-05-14T10:19:10.146Z,2.60
2019-05-14T10:21:40.277Z,2.27
2019-05-14T10:24:10.003Z,2.50
2019-05-14T10:26:40.583Z,2.70
2019-05-14T10:29:10.296Z,2.37
2019-05-14T10:31:40.054Z,2.73
2019-05-14T10:34:09.789Z,2.40
2019-05-14T10:36:39.501Z,2.53
2019-05-14T10:39:09.555Z,3.10
2019-05-14T10:41:39.501Z,2.70
2019-05-14T10:44:09.365Z,3.10
2019-05-14T10:46:39.172Z,3.10
2019-05-14T10:49:19.958Z,3.40
2019-05-14T10:51:40.393Z,3.60
2019-05-14T10:54:21.208Z,3.77
2019-05-14T10:56:41.462Z,3.43
2019-05-14T10:59:11.203Z,3.90
2019-05-14T11:01:40.954Z,4.03
2019-05-14T11:04:10.711Z,4.20
2019-05-14T11:06:40.416Z,4.30
2019-05-14T11:09:22.691Z,3.93
2019-05-14T11:11:52.434Z,3.80
2019-05-14T11:14:22.186Z,4.20
2019-05-14T11:16:51.922Z,3.80
2019-05-14T11:19:21.664Z,3.63
2019-05-14T11:21:51.420Z,3.60
2019-05-14T11:24:21.138Z,3.60
2019-05-14T11:26:50.893Z,3.60
2019-05-14T11:29:20.624Z,3.20
2019-05-14T11:31:50.355Z,3.27
2019-05-14T11:34:20.128Z,3.93
2019-05-14T11:36:50.831Z,4.23
2019-05-14T11:39:20.598Z,3.50
2019-05-14T11:41:50.330Z,3.27
2019-05-14T11:44:20.071Z,3.47
2019-05-14T11:46:57.161Z,3.03
2019-05-14T11:49:21.179Z,3.30
2019-05-14T11:52:04.319Z,3.60
2019-05-14T11:54:23.690Z,3.33
2019-05-14T11:56:53.403Z,3.13
2019-05-14T11:59:23.974Z,3.60
2019-05-14T12:01:55.112Z,3.80
2019-05-14T12:04:24.986Z,3.13
2019-05-14T12:06:54.793Z,3.40
2019-05-14T12:09:24.569Z,3.33
2019-05-14T12:11:54.307Z,2.67
2019-05-14T12:14:24.049Z,2.87
2019-05-14T12:16:54.771Z,3.10
2019-05-14T12:19:24.502Z,2.80
2019-05-14T12:22:05.800Z,2.87
2019-05-14T12:24:29.001Z,3.20
2019-05-14T12:26:58.618Z,3.70
2019-05-14T12:29:29.358Z,3.63
2019-05-14T12:32:00.297Z,4.20
2019-05-14T12:34:30.051Z,7.17
2019-05-14T12:36:59.798Z,7.90
2019-05-14T12:39:29.584Z,4.10
2019-05-14T12:41:59.276Z,3.50
2019-05-14T12:44:29.280Z,4.10
2019-05-14T12:46:59.032Z,4.60
2019-05-14T12:49:28.774Z,3.53
2019-05-14T12:52:00.744Z,3.30
2019-05-14T12:54:29.981Z,4.50
2019-05-14T12:56:59.832Z,3.20
2019-05-14T12:59:29.936Z,3.40
2019-05-14T13:01:59.674Z,9.77
2019-05-14T13:04:29.412Z,5.60
2019-05-14T13:06:59.730Z,4.83
2019-05-14T13:09:29.726Z,4.67
2019-05-14T13:11:59.480Z,4.70
2019-05-14T13:14:29.218Z,4.60
2019-05-14T13:16:59.756Z,4.90
2019-05-14T13:19:29.778Z,5.43
2019-05-14T13:22:13.365Z,6.40
2019-05-14T13:24:31.175Z,5.00
2019-05-14T13:27:00.894Z,4.87
2019-05-14T13:29:31.533Z,4.80
2019-05-14T13:32:01.257Z,4.30
2019-05-14T13:34:31.997Z,6.40
2019-05-14T13:37:01.744Z,5.30
2019-05-14T13:39:31.475Z,6.57
2019-05-14T13:42:01.215Z,5.57
2019-05-14T13:44:30.938Z,6.70
2019-05-14T13:47:00.694Z,4.80
2019-05-14T13:49:30.508Z,6.50
2019-05-14T13:52:00.236Z,4.90
2019-05-14T13:54:31.637Z,4.67
2019-05-14T13:57:01.467Z,6.90
2019-05-14T13:59:31.224Z,3.23
2019-05-14T14:02:00.990Z,3.43
2019-05-14T14:04:30.713Z,3.20
2019-05-14T14:07:00.495Z,3.20
2019-05-14T14:09:31.565Z,3.00
2019-05-14T14:12:01.465Z,3.40
2019-05-14T14:14:31.205Z,4.60
2019-05-14T14:17:00.986Z,3.33
2019-05-14T14:19:30.788Z,3.63
2019-05-14T14:22:00.538Z,4.03
2019-05-14T14:24:30.292Z,4.00
2019-05-14T14:27:00.026Z,4.37
2019-05-14T14:29:32.855Z,4.63
2019-05-14T14:32:02.575Z,4.23
2019-05-14T14:34:32.354Z,3.53
2019-05-14T14:37:02.037Z,3.80
2019-05-14T14:39:31.777Z,3.87
2019-05-14T14:42:01.502Z,3.70
2019-05-14T14:44:31.221Z,3.00
2019-05-14T14:47:00.998Z,3.80
2019-05-14T14:49:30.787Z,3.60
2019-05-14T14:52:00.529Z,3.53
2019-05-14T14:54:30.272Z,2.80
2019-05-14T14:56:59.986Z,2.80
2019-05-14T14:59:30.525Z,3.30
2019-05-14T15:02:01.194Z,4.03
2019-05-14T15:04:30.960Z,2.97
2019-05-14T15:07:00.681Z,7.23
2019-05-14T15:09:30.415Z,5.83
2019-05-14T15:12:00.149Z,22.93
2019-05-14T15:14:31.555Z,5.47
2019-05-14T15:17:02.175Z,3.93
2019-05-14T15:19:31.892Z,5.20
2019-05-14T15:22:01.658Z,4.33
2019-05-14T15:24:31.367Z,3.57
2019-05-14T15:27:07.952Z,3.57
2019-05-14T15:29:32.829Z,3.30
2019-05-14T15:32:02.558Z,5.00
2019-05-14T15:34:32.351Z,3.37
2019-05-14T15:37:02.087Z,3.50
2019-05-14T15:39:31.805Z,3.70
2019-05-14T15:42:05.821Z,4.33
2019-05-14T15:44:47.634Z,5.03
2019-05-14T15:47:05.355Z,3.50
2019-05-14T15:49:35.096Z,2.90
2019-05-14T15:52:05.065Z,2.57
2019-05-14T15:54:45.614Z,3.00
2019-05-14T15:57:06.178Z,2.97
2019-05-14T15:59:39.065Z,2.80
2019-05-14T16:02:09.467Z,2.70
2019-05-14T16:04:39.320Z,2.80
2019-05-14T16:07:09.594Z,2.80
2019-05-14T16:09:39.879Z,3.37
2019-05-14T16:12:09.760Z,3.20
2019-05-14T16:14:39.529Z,3.10
2019-05-14T16:17:11.964Z,3.90
2019-05-14T16:19:40.632Z,3.50
2019-05-14T16:22:10.355Z,3.03
2019-05-14T16:24:55.744Z,3.83
2019-05-14T16:27:13.002Z,4.07
2019-05-14T16:29:45.964Z,4.03
2019-05-14T16:32:14.126Z,3.80
2019-05-14T16:34:43.880Z,4.37
2019-05-14T16:37:13.610Z,4.73
2019-05-14T16:39:43.347Z,4.27
2019-05-14T16:42:13.099Z,8.73
2019-05-14T16:44:42.831Z,7.10
2019-05-14T16:47:12.584Z,4.87
2019-05-14T16:49:42.302Z,4.07
2019-05-14T16:52:12.068Z,5.90
2019-05-14T16:54:41.784Z,4.00
2019-05-14T16:57:11.508Z,4.40
2019-05-14T16:59:41.408Z,6.10
2019-05-14T17:02:11.153Z,5.27
2019-05-14T17:04:40.921Z,5.90
2019-05-14T17:07:10.729Z,5.33
2019-05-14T17:09:40.495Z,5.07
2019-05-14T17:12:10.213Z,4.97
2019-05-14T17:14:39.961Z,6.13
2019-05-14T17:17:09.700Z,6.43
2019-05-14T17:19:39.436Z,5.87
2019-05-14T17:22:24.321Z,6.17
2019-05-14T17:24:40.852Z,7.80
2019-05-14T17:27:10.640Z,8.80
2019-05-14T17:29:40.355Z,8.77
2019-05-14T17:32:10.176Z,10.33
2019-05-14T17:34:40.059Z,10.00
2019-05-14T17:37:09.776Z,10.07
2019-05-14T17:39:39.541Z,10.70
2019-05-14T17:42:11.818Z,11.43
2019-05-14T17:44:40.877Z,11.33
2019-05-14T17:47:11.060Z,11.47
2019-05-14T17:49:40.844Z,11.97
2019-05-14T17:52:10.571Z,11.47
2019-05-14T17:54:42.043Z,11.83
2019-05-14T17:57:11.701Z,11.83
2019-05-14T17:59:41.438Z,11.13
2019-05-14T18:02:11.183Z,12.00
2019-05-14T18:04:41.068Z,11.97
2019-05-14T18:07:10.819Z,12.83
2019-05-14T18:09:40.574Z,14.20
2019-05-14T18:12:10.295Z,13.77
2019-05-14T18:14:40.051Z,16.30
2019-05-14T18:17:10.783Z,14.73
2019-05-14T18:19:40.541Z,16.13
2019-05-14T18:22:10.611Z,16.90
2019-05-14T18:24:40.336Z,17.90
2019-05-14T18:27:10.070Z,17.97
2019-05-14T18:29:39.820Z,15.20
2019-05-14T18:32:09.586Z,12.00
2019-05-14T18:34:41.087Z,10.90
2019-05-14T18:37:13.924Z,8.43
2019-05-14T18:39:42.420Z,7.50
2019-05-14T18:42:12.493Z,8.10
2019-05-14T18:44:43.230Z,7.87
2019-05-14T18:47:13.018Z,7.00
2019-05-14T18:49:42.757Z,7.70
2019-05-14T18:52:12.511Z,7.67
2019-05-14T18:54:42.255Z,7.87
2019-05-14T18:57:12.273Z,7.80
2019-05-14T18:59:42.046Z,6.57
2019-05-14T19:02:11.771Z,6.97
2019-05-14T19:04:41.921Z,7.30
2019-05-14T19:07:11.631Z,7.70
2019-05-14T19:09:42.424Z,19.57
2019-05-14T19:12:12.150Z,15.63
2019-05-14T19:14:41.903Z,18.53
2019-05-14T19:17:11.652Z,18.50
2019-05-14T19:19:41.394Z,13.83
2019-05-14T19:22:11.179Z,10.07
2019-05-14T19:24:41.046Z,9.60
2019-05-14T19:27:10.785Z,10.93
2019-05-14T19:29:41.460Z,10.43
2019-05-14T19:32:11.191Z,9.53
2019-05-14T19:34:40.994Z,10.23
2019-05-14T19:37:10.737Z,10.37
2019-05-14T19:39:40.479Z,10.40
2019-05-14T19:42:10.230Z,10.53
2019-05-14T19:44:40.546Z,10.80
2019-05-14T19:47:10.326Z,10.40
2019-05-14T19:49:40.075Z,10.70
2019-05-14T19:52:09.816Z,11.17
2019-05-14T19:54:39.561Z,10.63
2019-05-14T19:57:09.935Z,9.80
2019-05-14T19:59:39.954Z,11.07
2019-05-14T20:02:09.717Z,11.47
2019-05-14T20:04:40.437Z,10.93
2019-05-14T20:07:10.275Z,12.73
2019-05-14T20:09:40.107Z,11.60
2019-05-14T20:12:09.851Z,11.70
2019-05-14T20:14:39.592Z,10.83
2019-05-14T20:17:09.341Z,10.67
2019-05-14T20:19:39.745Z,9.27
2019-05-14T20:22:09.586Z,8.23
2019-05-14T20:24:41.648Z,8.63
2019-05-14T20:27:12.277Z,8.13
2019-05-14T20:29:43.255Z,8.97
2019-05-14T20:32:13.022Z,9.10
2019-05-14T20:34:42.765Z,8.90
2019-05-14T20:37:13.530Z,8.87
2019-05-14T20:39:43.255Z,9.40
2019-05-14T20:42:13.107Z,8.00
2019-05-14T20:44:42.865Z,7.73
2019-05-14T20:47:12.611Z,8.23
2019-05-14T20:49:42.337Z,6.83
2019-05-14T20:52:12.070Z,6.40
2019-05-14T20:54:41.839Z,7.20
2019-05-14T20:57:23.270Z,6.73
2019-05-14T20:59:43.093Z,7.10
2019-05-14T21:02:13.116Z,7.37
2019-05-14T21:04:42.865Z,6.80
2019-05-14T21:07:12.614Z,6.87
2019-05-14T21:09:42.331Z,6.73
2019-05-14T21:12:12.113Z,7.07
2019-05-14T21:14:41.835Z,6.67
2019-05-14T21:17:11.558Z,6.80
2019-05-14T21:19:41.295Z,6.30
2019-05-14T21:22:11.035Z,6.10
2019-05-14T21:24:40.799Z,6.80
2019-05-14T21:27:10.528Z,5.93
2019-05-14T21:29:40.311Z,4.90
2019-05-14T21:32:10.080Z,4.63
2019-05-14T21:34:39.783Z,4.40
2019-05-14T21:37:10.369Z,5.07
2019-05-14T21:39:40.934Z,5.47
2019-05-14T21:42:11.063Z,4.80
2019-05-14T21:44:40.973Z,4.90
2019-05-14T21:47:10.690Z,4.80
2019-05-14T21:49:40.435Z,4.57
2019-05-14T21:52:10.180Z,4.00
2019-05-14T21:54:39.959Z,3.70
2019-05-14T21:57:11.812Z,4.30
2019-05-14T21:59:41.082Z,3.90
2019-05-14T22:02:21.711Z,4.60
2019-05-14T22:04:42.745Z,4.20
2019-05-14T22:07:12.493Z,4.87
2019-05-14T22:09:42.227Z,4.10
2019-05-14T22:12:13.115Z,4.40
2019-05-14T22:14:42.840Z,4.00
2019-05-14T22:17:12.652Z,4.37
2019-05-14T22:19:42.350Z,4.10
2019-05-14T22:22:12.093Z,3.93
2019-05-14T22:24:42.000Z,3.57
2019-05-14T22:27:11.722Z,4.07
2019-05-14T22:29:41.471Z,3.47
2019-05-14T22:32:11.203Z,3.70
2019-05-14T22:34:41.391Z,4.20
2019-05-14T22:37:11.852Z,3.30
2019-05-14T22:39:41.574Z,4.07
2019-05-14T22:42:12.354Z,3.40
2019-05-14T22:44:42.085Z,2.83
2019-05-14T22:47:11.879Z,3.03
2019-05-14T22:49:41.616Z,3.23
2019-05-14T22:52:11.370Z,3.40
2019-05-14T22:54:41.136Z,2.97
2019-05-14T22:57:10.867Z,3.73
2019-05-14T22:59:40.618Z,4.50
2019-05-14T23:02:11.301Z,4.40
2019-05-14T23:04:42.154Z,4.13
2019-05-14T23:07:12.226Z,4.40
2019-05-14T23:09:41.963Z,4.20
2019-05-14T23:12:12.338Z,4.70
2019-05-14T23:14:42.169Z,4.20
2019-05-14T23:17:11.899Z,3.90
2019-05-14T23:19:41.672Z,4.20
2019-05-14T23:22:11.404Z,3.10
2019-05-14T23:24:41.148Z,3.47
2019-05-14T23:27:10.903Z,3.43
2019-05-14T23:29:40.631Z,3.33
2019-05-14T23:32:10.362Z,3.50
2019-05-14T23:34:40.103Z,3.50
2019-05-14T23:37:09.957Z,3.70
2019-05-14T23:39:39.664Z,4.20
2019-05-14T23:42:09.892Z,4.50
2019-05-14T23:44:39.857Z,4.33
2019-05-14T23:47:09.600Z,4.00
2019-05-14T23:49:39.355Z,3.73
2019-05-14T23:52:09.079Z,3.87
2019-05-14T23:54:38.852Z,3.57
2019-05-14T23:57:08.953Z,4.10
2019-05-14T23:59:39.640Z,4.20
